Terminal Aerodrome Forecast
Issued by NWS

Current Version | Previous Version | Text Only | Print | Product List | Glossary On
Versions: 1 2 3 4 5 6 7 8 9 10 11 12 13 14
000
FTUS42 TJSJ 292300
TAFJBQ
TAF
TJBQ 292332Z 3000/3024 09003KT P6SM SCT030
     FM301350 07012KT P6SM SCT030
     FM302050 09003KT P6SM SCT030
      AMD NOT SKED 3002/3011=

USA.gov is the U.S. government's official web portal to all federal, state and local government web resources and services.